Terminal Aerodrome Forecast
Issued by NWS Atlanta, GA

Home | Current Version | Previous Version | Text Only | Print | Product List | Glossary On
Versions: 1 2 3 4 5 6 7 8 9 10 11 12 13 14 15 16 17 18 19 20 21 22 23 24 25 26 27 28 29 30 31 32 33 34 35 36 37 38 39 40 41 42 43
091
FTUS42 KFFC 240520
TAFATL
TAF
KATL 240520Z 2406/2512 31015G25KT P6SM BKN020
     FM241200 31013G23KT P6SM SCT020
      TEMPO 2412/2414 BKN020
     FM241700 29010KT P6SM SKC
     FM250000 27004KT P6SM FEW250=

USA.gov is the U.S. government's official web portal to all federal, state and local government web resources and services.